createdAt,value
2023-01-01T00:01:32.556Z,99681.69
2023-01-01T00:04:01.026Z,99684.22
2023-01-01T00:06:28.790Z,99681.16
2023-01-01T00:09:10.331Z,99679.50
2023-01-01T00:11:38.099Z,99678.94
2023-01-01T00:14:12.012Z,99681.44
2023-01-01T00:16:40.889Z,99669.44
2023-01-01T00:19:08.729Z,99681.63
2023-01-01T00:21:36.529Z,99654.91
2023-01-01T00:24:04.510Z,99672.81
2023-01-01T00:26:35.256Z,99677.84
2023-01-01T00:29:04.120Z,99675.16
2023-01-01T00:31:32.384Z,99679.22
2023-01-01T00:34:00.314Z,99675.97
2023-01-01T00:36:29.045Z,99683.72
2023-01-01T00:38:57.368Z,99675.44
2023-01-01T00:41:25.363Z,99678.50
2023-01-01T00:43:53.045Z,99678.72
2023-01-01T00:46:20.921Z,99676.28
2023-01-01T00:48:48.668Z,99674.91
2023-01-01T00:51:16.300Z,99675.16
2023-01-01T00:53:43.959Z,99594.22
2023-01-01T00:56:11.723Z,99686.53
2023-01-01T00:58:39.695Z,99668.06
2023-01-01T01:01:07.687Z,99652.28
2023-01-01T01:03:35.552Z,99672.66
2023-01-01T01:06:03.180Z,99673.16
2023-01-01T01:08:34.982Z,99673.25
2023-01-01T01:11:06.906Z,99673.78
2023-01-01T01:13:34.597Z,99647.94
2023-01-01T01:16:02.374Z,99656.94
2023-01-01T01:18:30.076Z,99660.16
2023-01-01T01:20:57.761Z,99662.75
2023-01-01T01:23:25.425Z,99667.47
2023-01-01T01:25:53.128Z,99654.88
2023-01-01T01:28:20.853Z,99649.94
2023-01-01T01:30:48.514Z,99666.38
2023-01-01T01:33:17.199Z,99666.91
2023-01-01T01:35:52.080Z,99661.66
2023-01-01T01:38:20.471Z,99658.34
2023-01-01T01:40:48.104Z,99663.34
2023-01-01T01:43:26.036Z,99648.72
2023-01-01T01:46:07.286Z,99643.13
2023-01-01T01:48:40.595Z,99639.75
2023-01-01T01:51:08.777Z,99642.78
2023-01-01T01:53:40.051Z,99631.59
2023-01-01T01:56:11.633Z,99649.50
2023-01-01T01:58:39.925Z,99651.97
2023-01-01T02:01:07.731Z,99650.31
2023-01-01T02:03:44.910Z,99635.97
2023-01-01T02:06:13.114Z,99639.19
2023-01-01T02:08:40.857Z,99629.81
2023-01-01T02:11:08.494Z,99631.34
2023-01-01T02:13:39.904Z,99616.34
2023-01-01T02:16:18.027Z,99582.75
2023-01-01T02:19:03.984Z,99625.28
2023-01-01T02:21:35.727Z,99607.63
2023-01-01T02:24:35.747Z,99623.63
2023-01-01T02:27:09.229Z,99625.53
2023-01-01T02:29:47.834Z,99621.34
2023-01-01T02:32:25.444Z,99612.53
2023-01-01T02:35:23.904Z,99591.97
2023-01-01T02:37:54.797Z,99611.66
2023-01-01T02:40:24.853Z,99554.84
2023-01-01T02:42:55.057Z,99618.38
2023-01-01T02:45:23.142Z,99617.75
2023-01-01T02:47:51.030Z,99583.69
2023-01-01T02:50:29.014Z,99586.72
2023-01-01T02:53:08.537Z,99606.38
2023-01-01T02:55:46.379Z,99612.78
2023-01-01T02:58:59.490Z,99604.13
2023-01-01T03:01:35.499Z,99612.19
2023-01-01T03:04:20.399Z,99614.19
2023-01-01T03:07:03.622Z,99610.53
2023-01-01T03:09:57.757Z,99605.81
2023-01-01T03:12:39.867Z,99588.75
2023-01-01T03:15:16.230Z,99613.91
2023-01-01T03:17:55.652Z,99610.13
2023-01-01T03:20:27.924Z,99623.69
2023-01-01T03:23:03.273Z,99625.28
2023-01-01T03:25:35.900Z,99621.97
2023-01-01T03:28:15.643Z,99630.63
2023-01-01T03:30:46.954Z,99610.41
2023-01-01T03:33:22.524Z,99623.66
2023-01-01T03:36:02.251Z,99608.25
2023-01-01T03:38:41.589Z,99590.06
2023-01-01T03:41:16.113Z,99613.03
2023-01-01T03:43:55.456Z,99606.34
2023-01-01T03:46:29.308Z,99617.16
2023-01-01T03:49:03.303Z,99611.72
2023-01-01T03:51:50.619Z,99622.19
2023-01-01T03:54:43.783Z,99613.94
2023-01-01T03:57:24.564Z,99615.06
2023-01-01T04:00:08.089Z,99613.34
2023-01-01T04:02:49.925Z,99614.75
2023-01-01T04:05:19.050Z,99603.47
2023-01-01T04:10:21.294Z,99601.59
2023-01-01T04:12:52.176Z,99597.63
2023-01-01T04:15:22.421Z,99604.38
2023-01-01T04:17:51.246Z,99612.28
2023-01-01T04:20:19.197Z,99584.16
2023-01-01T04:22:47.654Z,99610.09
2023-01-01T04:25:15.661Z,99609.19
2023-01-01T04:27:43.315Z,99600.63
2023-01-01T04:30:13.793Z,99574.19
2023-01-01T04:32:42.165Z,99605.09
2023-01-01T04:35:12.735Z,99596.78
2023-01-01T04:37:45.463Z,99610.16
2023-01-01T04:40:14.225Z,99528.72
2023-01-01T04:42:43.360Z,99601.28
2023-01-01T04:45:12.400Z,99621.44
2023-01-01T04:47:40.117Z,99607.31
2023-01-01T04:50:08.232Z,99600.53
2023-01-01T04:52:35.838Z,99607.94
2023-01-01T04:55:03.506Z,99606.22
2023-01-01T04:57:32.467Z,99605.53
2023-01-01T05:00:00.181Z,99548.44
2023-01-01T05:02:28.183Z,99593.34
2023-01-01T05:04:55.902Z,99606.28
2023-01-01T05:07:23.547Z,99537.78
2023-01-01T05:09:51.268Z,99589.88
2023-01-01T05:12:18.976Z,99583.75
2023-01-01T05:14:46.630Z,99565.03
2023-01-01T05:17:14.883Z,99596.00
2023-01-01T05:19:42.593Z,99570.53
2023-01-01T05:22:11.162Z,99572.47
2023-01-01T05:24:39.218Z,99600.44
2023-01-01T05:27:06.934Z,99578.91
2023-01-01T05:29:34.587Z,99595.72
2023-01-01T05:32:02.250Z,99592.06
2023-01-01T05:36:59.185Z,99571.91
2023-01-01T05:39:26.880Z,99573.84
2023-01-01T05:41:54.508Z,99602.31
2023-01-01T05:44:22.166Z,99530.53
2023-01-01T05:46:50.279Z,99589.06
2023-01-01T05:49:18.017Z,99592.66
2023-01-01T05:51:45.655Z,99594.31
2023-01-01T05:56:40.028Z,99590.16
2023-01-01T05:59:07.692Z,99571.84
2023-01-01T06:01:41.832Z,99580.97
2023-01-01T06:04:13.093Z,99580.47
2023-01-01T06:06:40.749Z,99575.72
2023-01-01T06:09:08.466Z,99579.09
2023-01-01T06:11:36.103Z,99579.47
2023-01-01T06:14:03.898Z,99575.44
2023-01-01T06:16:32.581Z,99584.03
2023-01-01T06:19:00.378Z,99583.84
2023-01-01T06:21:29.737Z,99581.81
2023-01-01T06:23:59.305Z,99590.63
2023-01-01T06:26:32.578Z,99594.97
2023-01-01T06:29:02.794Z,99593.28
2023-01-01T06:31:32.999Z,99591.06
2023-01-01T06:34:04.760Z,99594.31
2023-01-01T06:36:32.484Z,99570.19
2023-01-01T06:39:00.490Z,99532.09
2023-01-01T06:41:29.492Z,99601.25
2023-01-01T06:43:58.190Z,99599.31
2023-01-01T06:46:33.888Z,99583.38
2023-01-01T06:49:21.792Z,99594.06
2023-01-01T06:51:49.424Z,99596.25
2023-01-01T06:54:17.082Z,99586.97
2023-01-01T06:56:44.812Z,99590.22
2023-01-01T06:59:12.556Z,99599.84
2023-01-01T07:01:44.310Z,99600.47
2023-01-01T07:04:15.145Z,99591.06
2023-01-01T07:06:43.530Z,99619.78
2023-01-01T07:09:11.166Z,99618.97
2023-01-01T07:11:38.841Z,99615.59
2023-01-01T07:14:06.462Z,99618.66
2023-01-01T07:16:34.248Z,99625.88
2023-01-01T07:19:02.035Z,99611.53
2023-01-01T07:21:34.770Z,99617.00
2023-01-01T07:24:04.905Z,99622.56
2023-01-01T07:26:34.183Z,99622.47
2023-01-01T07:29:07.361Z,99624.66
2023-01-01T07:31:40.815Z,99626.88
2023-01-01T07:34:11.286Z,99620.22
2023-01-01T07:36:38.924Z,99628.25
2023-01-01T07:39:06.888Z,99617.78
2023-01-01T07:41:34.539Z,99626.84
2023-01-01T07:44:02.241Z,99628.81
2023-01-01T07:46:30.258Z,99636.59
2023-01-01T07:48:59.321Z,99617.75
2023-01-01T07:51:27.720Z,99612.00
2023-01-01T07:53:58.156Z,99631.59
2023-01-01T07:56:28.536Z,99631.59
2023-01-01T07:58:56.226Z,99629.16
2023-01-01T08:01:23.957Z,99625.63
2023-01-01T08:03:53.734Z,99633.63
2023-01-01T08:06:22.486Z,99636.38
2023-01-01T08:08:50.352Z,99661.81
2023-01-01T08:11:18.005Z,99653.19
2023-01-01T08:13:45.680Z,99658.22
2023-01-01T08:16:13.505Z,99654.59
2023-01-01T08:18:41.181Z,99657.66
2023-01-01T08:21:09.449Z,99659.59
2023-01-01T08:23:37.073Z,99662.06
2023-01-01T08:26:04.950Z,99630.81
2023-01-01T08:28:32.702Z,99664.03
2023-01-01T08:31:00.497Z,99659.88
2023-01-01T08:33:30.120Z,99662.06
2023-01-01T08:35:57.821Z,99656.22
2023-01-01T08:38:25.581Z,99662.06
2023-01-01T08:40:53.603Z,99652.94
2023-01-01T08:43:21.372Z,99654.59
2023-01-01T08:45:50.785Z,99661.50
2023-01-01T08:48:25.624Z,99647.97
2023-01-01T08:51:00.212Z,99675.94
2023-01-01T08:53:29.674Z,99641.63
2023-01-01T08:56:03.779Z,99671.22
2023-01-01T08:58:32.607Z,99674.81
2023-01-01T09:01:03.232Z,99673.69
2023-01-01T09:03:31.118Z,99680.59
2023-01-01T09:05:58.921Z,99678.16
2023-01-01T09:08:27.115Z,99615.69
2023-01-01T09:10:58.775Z,99681.16
2023-01-01T09:13:26.482Z,99677.78
2023-01-01T09:15:54.374Z,99683.63
2023-01-01T09:18:22.140Z,99663.47
2023-01-01T09:20:50.036Z,99690.25
2023-01-01T09:23:17.676Z,99689.16
2023-01-01T09:25:45.328Z,99685.50
2023-01-01T09:28:14.802Z,99688.56
2023-01-01T09:30:42.551Z,99683.56
2023-01-01T09:33:10.331Z,99677.22
2023-01-01T09:35:38.865Z,99692.06
2023-01-01T09:38:06.592Z,99667.81
2023-01-01T09:41:03.340Z,99683.75
2023-01-01T09:43:48.968Z,99675.13
2023-01-01T09:46:16.836Z,99651.00
2023-01-01T09:49:08.285Z,99649.50
2023-01-01T09:51:45.238Z,99667.75
2023-01-01T09:54:30.542Z,99659.19
2023-01-01T09:57:00.914Z,99631.06
2023-01-01T09:59:29.058Z,99650.88
2023-01-01T10:02:02.882Z,99663.03
2023-01-01T10:04:49.699Z,99663.56
2023-01-01T10:07:38.617Z,99645.31
2023-01-01T10:10:41.719Z,99639.47
2023-01-01T10:13:19.003Z,99651.75
2023-01-01T10:15:57.270Z,99651.09
2023-01-01T10:18:29.963Z,99636.13
2023-01-01T10:21:18.026Z,99637.44
2023-01-01T10:23:52.221Z,99613.38
2023-01-01T10:26:22.218Z,99611.66
2023-01-01T10:29:01.658Z,99637.84
2023-01-01T10:31:38.011Z,99636.31
2023-01-01T10:34:17.222Z,99619.16
2023-01-01T10:36:45.568Z,99620.00
2023-01-01T10:39:20.316Z,99624.09
2023-01-01T10:41:49.213Z,99633.63
2023-01-01T10:44:20.851Z,99634.59
2023-01-01T10:46:57.469Z,99617.38
2023-01-01T10:49:25.393Z,99632.75
2023-01-01T10:51:55.638Z,99628.72
2023-01-01T10:54:41.699Z,99627.69
2023-01-01T10:57:21.743Z,99631.59
2023-01-01T10:59:54.193Z,99620.53
2023-01-01T11:02:27.503Z,99621.56
2023-01-01T11:05:22.008Z,99619.16
2023-01-01T11:07:50.291Z,99627.00
2023-01-01T11:10:23.963Z,99617.09
2023-01-01T11:13:08.890Z,99620.28
2023-01-01T11:15:44.223Z,99622.88
2023-01-01T11:18:21.917Z,99618.22
2023-01-01T11:20:55.177Z,99609.88
2023-01-01T11:23:40.762Z,99607.72
2023-01-01T11:26:28.860Z,99605.88
2023-01-01T11:29:26.279Z,99605.50
2023-01-01T11:31:54.360Z,99596.69
2023-01-01T11:34:35.514Z,99589.94
2023-01-01T11:37:15.411Z,99594.94
2023-01-01T11:39:45.990Z,99592.16
2023-01-01T11:42:26.417Z,99586.34
2023-01-01T11:44:58.328Z,99587.94
2023-01-01T11:47:33.065Z,99568.38
2023-01-01T11:50:09.012Z,99584.31
2023-01-01T11:52:42.777Z,99577.25
2023-01-01T11:55:42.123Z,99581.81
2023-01-01T11:58:20.024Z,99586.53
2023-01-01T12:00:52.069Z,99583.78
2023-01-01T12:03:34.292Z,99588.66
2023-01-01T12:06:17.314Z,99574.47
2023-01-01T12:08:57.051Z,99574.47
2023-01-01T12:11:32.985Z,99569.44
2023-01-01T12:14:20.348Z,99572.44
2023-01-01T12:17:14.020Z,99565.56
2023-01-01T12:19:56.850Z,99563.25
2023-01-01T12:22:26.738Z,99553.00
2023-01-01T12:24:55.377Z,99555.13
2023-01-01T12:27:53.683Z,99498.88
2023-01-01T12:30:25.277Z,99555.47
2023-01-01T12:33:08.149Z,99560.47
2023-01-01T12:35:48.104Z,99557.53
2023-01-01T12:38:37.929Z,99552.75
2023-01-01T12:41:24.195Z,99563.44
2023-01-01T12:44:31.624Z,99560.41
2023-01-01T12:47:17.978Z,99555.81
2023-01-01T12:50:01.457Z,99537.94
2023-01-01T12:52:58.449Z,99548.78
2023-01-01T12:55:42.822Z,99547.25
2023-01-01T12:58:18.873Z,99553.28
2023-01-01T13:00:56.155Z,99550.56
2023-01-01T13:03:29.888Z,99549.16
2023-01-01T13:05:59.984Z,99545.41
2023-01-01T13:08:27.674Z,99534.59
2023-01-01T13:10:59.328Z,99544.69
2023-01-01T13:13:27.447Z,99557.44
2023-01-01T13:15:57.544Z,99552.25
2023-01-01T13:18:28.615Z,99557.72
2023-01-01T13:20:59.491Z,99558.41
2023-01-01T13:23:34.718Z,99551.34
2023-01-01T13:26:20.951Z,99553.84
2023-01-01T13:28:51.427Z,99563.59
2023-01-01T13:31:19.644Z,99544.22
2023-01-01T13:34:26.166Z,99559.94
2023-01-01T13:37:14.032Z,99534.72
2023-01-01T13:39:55.402Z,99560.97
2023-01-01T13:42:52.333Z,99563.16
2023-01-01T13:46:09.949Z,99572.34
2023-01-01T13:48:27.416Z,99569.34
2023-01-01T13:52:03.076Z,99570.53
2023-01-01T13:54:26.841Z,99568.34
2023-01-01T13:56:59.573Z,99563.94
2023-01-01T13:59:39.959Z,99567.22
2023-01-01T14:02:23.599Z,99568.88
2023-01-01T14:05:03.104Z,99571.72
2023-01-01T14:07:52.852Z,99551.03
2023-01-01T14:10:29.537Z,99578.00
2023-01-01T14:13:08.512Z,99566.78
2023-01-01T14:15:39.695Z,99573.09
2023-01-01T14:18:18.720Z,99572.88
2023-01-01T14:20:49.624Z,99533.72
2023-01-01T14:23:32.452Z,99569.84
2023-01-01T14:26:03.519Z,99551.97
2023-01-01T14:28:33.923Z,99564.66
2023-01-01T14:31:11.537Z,99567.19
2023-01-01T14:33:39.925Z,99569.97
2023-01-01T14:36:24.145Z,99572.84
2023-01-01T14:38:54.051Z,99576.13
2023-01-01T14:41:43.755Z,99579.50
2023-01-01T14:44:13.221Z,99573.72
2023-01-01T14:46:42.495Z,99575.16
2023-01-01T14:49:13.472Z,99575.44
2023-01-01T14:51:45.273Z,99578.50
2023-01-01T14:54:18.019Z,99587.66
2023-01-01T14:56:48.466Z,99572.25
2023-01-01T14:59:21.998Z,99593.56
2023-01-01T15:02:01.144Z,99580.66
2023-01-01T15:04:29.857Z,99575.66
2023-01-01T15:06:59.417Z,99595.28
2023-01-01T15:09:28.923Z,99602.78
2023-01-01T15:11:57.990Z,99588.78
2023-01-01T15:14:40.181Z,99606.75
2023-01-01T15:17:12.449Z,99603.16
2023-01-01T15:19:42.621Z,99602.06
2023-01-01T15:22:27.856Z,99607.09
2023-01-01T15:24:56.052Z,99609.88
2023-01-01T15:27:28.549Z,99607.16
2023-01-01T15:29:57.660Z,99607.97
2023-01-01T15:32:32.132Z,99602.44
2023-01-01T15:35:02.095Z,99607.16
2023-01-01T15:37:33.810Z,99607.38
2023-01-01T15:40:27.955Z,99607.16
2023-01-01T15:42:55.547Z,99610.75
2023-01-01T15:46:15.864Z,99606.63
2023-01-01T15:48:54.192Z,99609.16
2023-01-01T15:51:27.280Z,99595.09
2023-01-01T15:54:04.968Z,99614.72
2023-01-01T15:56:35.042Z,99616.97
2023-01-01T15:59:09.622Z,99613.63
2023-01-01T16:01:40.675Z,99611.16
2023-01-01T16:04:12.153Z,99610.03
2023-01-01T16:06:51.347Z,99614.22
2023-01-01T16:09:20.507Z,99618.34
2023-01-01T16:11:53.835Z,99587.22
2023-01-01T16:14:21.723Z,99630.84
2023-01-01T16:16:57.387Z,99622.84
2023-01-01T16:19:26.018Z,99625.91
2023-01-01T16:21:54.085Z,99625.06
2023-01-01T16:24:22.127Z,99627.66
2023-01-01T16:26:49.928Z,99604.72
2023-01-01T16:29:18.182Z,99635.09
2023-01-01T16:31:47.445Z,99645.38
2023-01-01T16:34:15.789Z,99641.47
2023-01-01T16:36:45.135Z,99647.09
2023-01-01T16:39:13.198Z,99638.75
2023-01-01T16:41:42.663Z,99634.91
2023-01-01T16:44:14.967Z,99624.38
2023-01-01T16:46:43.326Z,99634.88
2023-01-01T16:49:11.100Z,99620.72
2023-01-01T16:51:43.400Z,99613.59
2023-01-01T16:54:11.667Z,99627.38
2023-01-01T16:56:39.349Z,99622.13
2023-01-01T16:59:07.033Z,99605.56
2023-01-01T17:01:34.726Z,99622.13
2023-01-01T17:04:02.531Z,99615.81
2023-01-01T17:06:30.179Z,99624.38
2023-01-01T17:08:59.570Z,99626.56
2023-01-01T17:11:27.575Z,99630.75
2023-01-01T17:13:55.235Z,99595.19
2023-01-01T17:16:27.963Z,99634.91
2023-01-01T17:19:16.182Z,99635.72
2023-01-01T17:21:48.072Z,99636.84
2023-01-01T17:24:20.939Z,99632.72
2023-01-01T17:26:52.999Z,99643.22
2023-01-01T17:29:22.530Z,99648.22
2023-01-01T17:31:50.209Z,99636.31
2023-01-01T17:34:18.458Z,99636.59
2023-01-01T17:36:46.925Z,99646.03
2023-01-01T17:39:16.084Z,99634.66
2023-01-01T17:41:45.376Z,99633.53
2023-01-01T17:44:13.036Z,99630.56
2023-01-01T17:46:40.784Z,99614.81
2023-01-01T17:49:09.172Z,99637.72
2023-01-01T17:51:37.251Z,99635.00
2023-01-01T17:54:07.206Z,99636.91
2023-01-01T17:56:35.064Z,99635.53
2023-01-01T17:59:02.772Z,99611.81
2023-01-01T18:01:33.102Z,99636.59
2023-01-01T18:04:06.566Z,99631.34
2023-01-01T18:06:41.302Z,99622.59
2023-01-01T18:09:12.869Z,99632.19
2023-01-01T18:11:41.499Z,99639.66
2023-01-01T18:14:09.344Z,99637.44
2023-01-01T18:16:39.673Z,99646.28
2023-01-01T18:19:08.211Z,99646.03
2023-01-01T18:21:36.453Z,99642.75
2023-01-01T18:24:04.165Z,99644.97
2023-01-01T18:26:32.296Z,99648.56
2023-01-01T18:29:02.482Z,99622.63
2023-01-01T18:31:33.327Z,99649.34
2023-01-01T18:34:04.217Z,99646.56
2023-01-01T18:36:34.273Z,99592.22
2023-01-01T18:39:15.905Z,99645.50
2023-01-01T18:41:49.361Z,99648.03
2023-01-01T18:44:24.780Z,99642.22
2023-01-01T18:47:07.673Z,99648.56
2023-01-01T18:49:37.813Z,99647.47
2023-01-01T18:52:08.499Z,99644.69
2023-01-01T18:54:36.742Z,99639.13
2023-01-01T18:57:11.232Z,99635.00
2023-01-01T18:59:39.320Z,99640.00
2023-01-01T19:02:22.626Z,99648.03
2023-01-01T19:04:50.802Z,99650.28
2023-01-01T19:07:18.509Z,99645.56
2023-01-01T19:09:46.117Z,99652.19
2023-01-01T19:12:19.523Z,99663.84
2023-01-01T19:14:49.331Z,99652.53
2023-01-01T19:17:23.197Z,99650.59
2023-01-01T19:19:52.568Z,99644.78
2023-01-01T19:22:31.847Z,99658.56
2023-01-01T19:25:03.841Z,99660.50
2023-01-01T19:27:34.148Z,99659.91
2023-01-01T19:30:03.077Z,99654.91
2023-01-01T19:32:30.701Z,99640.00
2023-01-01T19:34:58.380Z,99649.94
2023-01-01T19:37:26.020Z,99649.41
2023-01-01T19:39:53.681Z,99651.66
2023-01-01T19:42:21.343Z,99653.00
2023-01-01T19:44:48.966Z,99649.16
2023-01-01T19:47:16.618Z,99649.69
2023-01-01T19:49:44.223Z,99648.34
2023-01-01T19:52:11.862Z,99641.38
2023-01-01T19:54:39.544Z,99642.78
2023-01-01T19:57:07.167Z,99649.47
2023-01-01T19:59:37.164Z,99647.50
2023-01-01T20:04:54.263Z,99647.47
2023-01-01T20:07:21.931Z,99646.63
2023-01-01T20:09:49.642Z,99651.09
2023-01-01T20:12:17.332Z,99619.91
2023-01-01T20:14:44.971Z,99645.56
2023-01-01T20:17:14.733Z,99646.97
2023-01-01T20:19:46.843Z,99627.34
2023-01-01T20:22:14.980Z,99642.50
2023-01-01T20:24:42.816Z,99617.41
2023-01-01T20:27:11.510Z,99636.25
2023-01-01T20:29:39.840Z,99642.25
2023-01-01T20:32:12.430Z,99643.94
2023-01-01T20:34:41.316Z,99631.47
2023-01-01T20:37:27.370Z,99639.44
2023-01-01T20:39:55.352Z,99642.78
2023-01-01T20:42:23.085Z,99650.88
2023-01-01T20:44:50.822Z,99649.78
2023-01-01T20:47:18.531Z,99652.53
2023-01-01T20:49:46.298Z,99656.72
2023-01-01T20:52:15.519Z,99649.47
2023-01-01T20:54:43.201Z,99659.44
2023-01-01T20:57:10.911Z,99645.31
2023-01-01T20:59:38.987Z,99643.91
2023-01-01T21:02:09.506Z,99644.16
2023-01-01T21:04:39.571Z,99643.31
2023-01-01T21:07:12.797Z,99644.75
2023-01-01T21:09:41.768Z,99624.03
2023-01-01T21:12:10.423Z,99651.69
2023-01-01T21:14:38.128Z,99638.94
2023-01-01T21:17:23.736Z,99648.09
2023-01-01T21:19:57.457Z,99648.91
2023-01-01T21:22:25.376Z,99639.25
2023-01-01T21:24:55.508Z,99606.66
2023-01-01T21:27:34.547Z,99649.78
2023-01-01T21:30:02.344Z,99650.66
2023-01-01T21:32:41.115Z,99652.84
2023-01-01T21:35:24.407Z,99649.53
2023-01-01T21:37:59.183Z,99630.22
2023-01-01T21:40:32.629Z,99646.22
2023-01-01T21:43:25.449Z,99644.84
2023-01-01T21:45:53.585Z,99596.53
2023-01-01T21:48:45.175Z,99649.31
2023-01-01T21:51:27.745Z,99637.69
2023-01-01T21:54:03.584Z,99595.47
2023-01-01T21:56:37.487Z,99641.53
2023-01-01T21:59:28.213Z,99637.41
2023-01-01T22:02:29.127Z,99640.13
2023-01-01T22:04:56.991Z,99646.50
2023-01-01T22:10:25.097Z,99652.06
2023-01-01T22:13:00.150Z,99651.28
2023-01-01T22:15:27.890Z,99653.75
2023-01-01T22:18:04.915Z,99641.59
2023-01-01T22:20:35.729Z,99650.44
2023-01-01T22:23:05.624Z,99649.34
2023-01-01T22:25:33.903Z,99651.81
2023-01-01T22:28:18.580Z,99654.88
2023-01-01T22:30:46.513Z,99652.38
2023-01-01T22:33:27.812Z,99630.88
2023-01-01T22:35:57.890Z,99620.59
2023-01-01T22:38:33.188Z,99646.00
2023-01-01T22:41:01.550Z,99639.69
2023-01-01T22:43:35.709Z,99641.63
2023-01-01T22:46:15.636Z,99628.63
2023-01-01T22:48:43.325Z,99642.41
2023-01-01T22:51:19.433Z,99637.69
2023-01-01T22:53:47.153Z,99569.22
2023-01-01T22:56:17.587Z,99626.88
2023-01-01T22:58:45.264Z,99625.00
2023-01-01T23:01:12.954Z,99629.72
2023-01-01T23:03:40.761Z,99608.41
2023-01-01T23:06:08.572Z,99616.13
2023-01-01T23:08:36.316Z,99599.31
2023-01-01T23:11:04.203Z,99615.84
2023-01-01T23:13:49.260Z,99610.88
2023-01-01T23:16:17.062Z,99617.53
2023-01-01T23:18:44.996Z,99620.59
2023-01-01T23:21:22.734Z,99618.91
2023-01-01T23:23:57.163Z,99613.69
2023-01-01T23:26:25.820Z,99617.53
2023-01-01T23:28:55.765Z,99578.91
2023-01-01T23:31:26.238Z,99603.97
2023-01-01T23:33:56.023Z,99606.69
2023-01-01T23:36:25.791Z,99605.63
2023-01-01T23:38:53.469Z,99603.69
2023-01-01T23:41:22.441Z,99599.50
2023-01-01T23:43:50.913Z,99587.69
2023-01-01T23:46:19.310Z,99614.25
2023-01-01T23:48:48.856Z,99604.50
2023-01-01T23:51:18.088Z,99607.19
2023-01-01T23:53:46.347Z,99607.19
2023-01-01T23:56:13.959Z,99603.59
2023-01-01T23:58:41.625Z,99595.81
